createdAt,value
2023-09-24T00:02:11.944Z,101970.56
2023-09-24T00:04:39.335Z,101971.56
2023-09-24T00:07:07.093Z,101966.63
2023-09-24T00:09:33.844Z,101973.63
2023-09-24T00:12:00.432Z,101974.59
2023-09-24T00:14:31.783Z,101979.94
2023-09-24T00:16:59.082Z,101977.66
2023-09-24T00:19:28.507Z,101984.78
2023-09-24T00:21:55.190Z,101986.84
2023-09-24T00:24:21.972Z,101987.13
2023-09-24T00:26:48.916Z,101995.91
2023-09-24T00:29:15.681Z,101993.59
2023-09-24T00:31:42.331Z,101988.69
2023-09-24T00:34:09.520Z,101988.97
2023-09-24T00:36:36.830Z,101990.09
2023-09-24T00:39:03.891Z,101997.22
2023-09-24T00:41:30.605Z,101996.53
2023-09-24T00:44:01.690Z,101993.41
2023-09-24T00:46:29.020Z,101997.78
2023-09-24T00:48:59.100Z,102000.69
2023-09-24T00:51:29.019Z,102001.63
2023-09-24T00:53:56.692Z,102006.97
2023-09-24T00:56:24.820Z,102011.50
2023-09-24T00:58:52.424Z,102011.63
2023-09-24T01:01:25.943Z,102015.22
2023-09-24T01:03:54.604Z,102018.75
2023-09-24T01:06:21.598Z,102017.94
2023-09-24T01:08:49.941Z,102021.34
2023-09-24T01:11:16.716Z,102022.19
2023-09-24T01:13:46.369Z,102018.75
2023-09-24T01:16:13.948Z,102022.31
2023-09-24T01:18:43.405Z,102023.41
2023-09-24T01:21:15.008Z,102026.84
2023-09-24T01:23:43.905Z,102017.22
2023-09-24T01:26:11.463Z,102025.34
2023-09-24T01:28:40.401Z,102019.59
2023-09-24T01:31:07.806Z,102020.84
2023-09-24T01:33:37.920Z,102023.59
2023-09-24T01:36:05.367Z,102019.63
2023-09-24T01:38:33.104Z,102018.13
2023-09-24T01:41:00.594Z,102015.94
2023-09-24T01:43:27.438Z,102015.94
2023-09-24T01:45:53.992Z,102013.50
2023-09-24T01:48:20.756Z,102015.28
2023-09-24T01:50:47.645Z,102018.69
2023-09-24T01:53:15.657Z,102013.66
2023-09-24T01:55:42.602Z,102012.00
2023-09-24T01:58:09.580Z,102009.56
2023-09-24T02:00:38.607Z,102016.78
2023-09-24T02:03:12.157Z,102014.63
2023-09-24T02:05:43.681Z,102018.19
2023-09-24T02:08:11.756Z,102017.38
2023-09-24T02:10:43.455Z,102022.00
2023-09-24T02:13:14.081Z,102024.91
2023-09-24T02:15:41.552Z,102025.16
2023-09-24T02:18:08.474Z,102022.84
2023-09-24T02:20:35.268Z,102026.41
2023-09-24T02:23:04.899Z,102035.03
2023-09-24T02:25:33.884Z,102034.34
2023-09-24T02:28:01.207Z,102044.75
2023-09-24T02:30:31.907Z,102038.72
2023-09-24T02:33:03.916Z,102036.41
2023-09-24T02:35:30.830Z,102042.69
2023-09-24T02:37:57.601Z,102043.78
2023-09-24T02:40:27.797Z,102048.56
2023-09-24T02:42:59.222Z,102044.50
2023-09-24T02:45:34.300Z,102048.84
2023-09-24T02:48:01.122Z,102042.97
2023-09-24T02:50:30.141Z,102045.84
2023-09-24T02:53:00.972Z,102045.28
2023-09-24T02:55:29.288Z,102039.72
2023-09-24T02:57:56.278Z,102046.81
2023-09-24T03:00:28.498Z,102036.69
2023-09-24T03:03:00.132Z,102038.63
2023-09-24T03:05:31.041Z,102039.69
2023-09-24T03:08:01.298Z,102046.94
2023-09-24T03:10:30.214Z,102054.03
2023-09-24T03:12:56.792Z,102055.78
2023-09-24T03:15:24.702Z,102060.31
2023-09-24T03:17:52.432Z,102065.66
2023-09-24T03:20:21.195Z,102074.38
2023-09-24T03:22:53.988Z,102069.47
2023-09-24T03:25:25.169Z,102075.88
2023-09-24T03:28:00.444Z,102083.78
2023-09-24T03:30:27.913Z,102078.59
2023-09-24T03:32:56.402Z,102083.94
2023-09-24T03:35:28.220Z,102090.88
2023-09-24T03:37:56.501Z,102093.63
2023-09-24T03:40:27.836Z,102092.13
2023-09-24T03:42:55.021Z,102092.13
2023-09-24T03:45:25.028Z,102094.81
2023-09-24T03:47:53.243Z,102099.47
2023-09-24T03:50:20.293Z,102110.00
2023-09-24T03:52:49.200Z,102106.69
2023-09-24T03:55:22.701Z,102112.03
2023-09-24T03:57:50.030Z,102114.75
2023-09-24T04:00:20.657Z,102107.22
2023-09-24T04:02:52.481Z,102111.59
2023-09-24T04:05:23.016Z,102108.19
2023-09-24T04:07:52.844Z,102106.78
2023-09-24T04:10:21.691Z,102106.25
2023-09-24T04:12:51.712Z,102115.13
2023-09-24T04:15:23.180Z,102105.81
2023-09-24T04:17:50.888Z,102114.53
2023-09-24T04:20:22.310Z,102117.41
2023-09-24T04:22:50.205Z,102127.91
2023-09-24T04:25:21.541Z,102124.72
2023-09-24T04:27:49.715Z,102129.22
2023-09-24T04:30:16.721Z,102132.66
2023-09-24T04:32:51.425Z,102123.06
2023-09-24T04:35:21.024Z,102127.47
2023-09-24T04:37:52.505Z,102132.66
2023-09-24T04:40:20.111Z,102132.50
2023-09-24T04:42:47.662Z,102131.81
2023-09-24T04:45:16.049Z,102138.75
2023-09-24T04:47:43.890Z,102147.38
2023-09-24T04:50:15.004Z,102147.38
2023-09-24T04:52:46.139Z,102148.06
2023-09-24T04:55:14.963Z,102145.47
2023-09-24T04:57:41.673Z,102149.00
2023-09-24T05:00:09.167Z,102145.03
2023-09-24T05:02:36.117Z,102157.06
2023-09-24T05:05:02.966Z,102150.34
2023-09-24T05:07:29.737Z,102155.66
2023-09-24T05:09:57.420Z,102154.03
2023-09-24T05:12:24.435Z,102154.03
2023-09-24T05:14:51.366Z,102151.56
2023-09-24T05:17:18.717Z,102151.56
2023-09-24T05:19:45.383Z,102155.94
2023-09-24T05:22:13.556Z,102155.09
2023-09-24T05:24:40.180Z,102159.59
2023-09-24T05:27:06.931Z,102157.84
2023-09-24T05:29:33.611Z,102161.94
2023-09-24T05:32:02.042Z,102161.66
2023-09-24T05:34:29.134Z,102160.84
2023-09-24T05:36:55.832Z,102170.28
2023-09-24T05:39:22.558Z,102172.72
2023-09-24T05:41:49.368Z,102176.84
2023-09-24T05:44:17.480Z,102180.00
2023-09-24T05:46:44.239Z,102180.72
2023-09-24T05:49:11.321Z,102177.88
2023-09-24T05:51:37.900Z,102179.50
2023-09-24T05:54:04.957Z,102176.53
2023-09-24T05:56:31.736Z,102182.28
2023-09-24T05:58:58.448Z,102186.25
2023-09-24T06:01:25.188Z,102182.19
2023-09-24T06:03:52.875Z,102189.59
2023-09-24T06:06:20.073Z,102184.56
2023-09-24T06:08:46.673Z,102184.59
2023-09-24T06:11:13.394Z,102182.44
2023-09-24T06:13:40.176Z,102194.88
2023-09-24T06:16:07.808Z,102196.13
2023-09-24T06:18:34.678Z,102196.56
2023-09-24T06:21:03.909Z,102197.91
2023-09-24T06:23:31.243Z,102205.31
2023-09-24T06:25:59.358Z,102215.28
2023-09-24T06:28:26.885Z,102218.59
2023-09-24T06:31:05.141Z,102225.59
2023-09-24T06:33:33.335Z,102229.66
2023-09-24T06:36:03.263Z,102229.78
2023-09-24T06:38:30.727Z,102234.44
2023-09-24T06:41:00.251Z,102234.81
2023-09-24T06:43:27.401Z,102235.94
2023-09-24T06:45:57.670Z,102234.44
2023-09-24T06:48:28.473Z,102234.72
2023-09-24T06:50:55.319Z,102239.13
2023-09-24T06:53:23.237Z,102241.34
2023-09-24T06:55:50.022Z,102240.16
2023-09-24T06:58:16.685Z,102247.13
2023-09-24T07:00:43.371Z,102250.00
2023-09-24T07:03:10.715Z,102251.25
2023-09-24T07:05:38.694Z,102253.94
2023-09-24T07:08:06.172Z,102256.38
2023-09-24T07:10:33.362Z,102263.22
2023-09-24T07:13:00.478Z,102267.13
2023-09-24T07:15:27.188Z,102269.22
2023-09-24T07:17:54.159Z,102267.25
2023-09-24T07:20:21.637Z,102267.56
2023-09-24T07:22:48.640Z,102271.25
2023-09-24T07:25:15.637Z,102273.81
2023-09-24T07:27:43.018Z,102269.22
2023-09-24T07:30:10.472Z,102279.59
2023-09-24T07:32:38.759Z,102279.66
2023-09-24T07:35:06.743Z,102285.44
2023-09-24T07:37:33.510Z,102285.00
2023-09-24T07:40:00.429Z,102291.25
2023-09-24T07:42:27.343Z,102297.94
2023-09-24T07:44:54.094Z,102292.66
2023-09-24T07:47:20.866Z,102296.41
2023-09-24T07:49:47.870Z,102299.44
2023-09-24T07:52:15.653Z,102304.19
2023-09-24T07:54:42.472Z,102304.69
2023-09-24T07:57:09.244Z,102296.31
2023-09-24T07:59:36.173Z,102299.22
2023-09-24T08:02:03.501Z,102304.81
2023-09-24T08:04:30.339Z,102298.91
2023-09-24T08:06:57.395Z,102311.81
2023-09-24T08:09:27.459Z,102310.63
2023-09-24T08:11:55.649Z,102306.53
2023-09-24T08:14:22.773Z,102305.03
2023-09-24T08:16:49.745Z,102301.59
2023-09-24T08:19:16.416Z,102308.97
2023-09-24T08:21:43.229Z,102313.59
2023-09-24T08:24:10.065Z,102312.47
2023-09-24T08:26:37.791Z,102311.31
2023-09-24T08:29:08.194Z,102315.91
2023-09-24T08:31:36.070Z,102311.69
2023-09-24T08:34:03.974Z,102326.72
2023-09-24T08:36:31.067Z,102318.41
2023-09-24T08:38:58.393Z,102320.88
2023-09-24T08:41:25.628Z,102318.44
2023-09-24T08:43:56.252Z,102314.22
2023-09-24T08:46:23.725Z,102316.03
2023-09-24T08:48:52.686Z,102316.91
2023-09-24T08:51:20.135Z,102314.28
2023-09-24T08:53:46.813Z,102311.03
2023-09-24T08:56:16.608Z,102317.41
2023-09-24T08:58:44.030Z,102312.00
2023-09-24T09:01:11.922Z,102317.09
2023-09-24T09:03:39.285Z,102308.41
2023-09-24T09:06:06.210Z,102319.88
2023-09-24T09:08:53.052Z,102313.47
2023-09-24T09:11:21.608Z,102321.16
2023-09-24T09:13:54.711Z,102314.28
2023-09-24T09:16:22.305Z,102320.63
2023-09-24T09:19:09.598Z,102326.88
2023-09-24T09:21:36.056Z,102316.72
2023-09-24T09:24:02.777Z,102311.59
2023-09-24T09:26:34.810Z,102304.88
2023-09-24T09:29:05.314Z,102303.88
2023-09-24T09:31:32.138Z,102300.91
2023-09-24T09:34:07.887Z,102296.13
2023-09-24T09:36:36.007Z,102300.69
2023-09-24T09:39:04.286Z,102295.94
2023-09-24T09:41:33.822Z,102294.78
2023-09-24T09:44:06.497Z,102292.28
2023-09-24T09:46:38.953Z,102290.63
2023-09-24T09:49:10.940Z,102289.91
2023-09-24T09:51:49.070Z,102292.84
2023-09-24T09:54:17.206Z,102287.91
2023-09-24T09:56:44.393Z,102284.56
2023-09-24T09:59:11.337Z,102281.72
2023-09-24T10:01:38.377Z,102274.78
2023-09-24T10:04:07.151Z,102279.38
2023-09-24T10:06:36.591Z,102270.81
2023-09-24T10:09:35.713Z,102273.44
2023-09-24T10:12:08.293Z,102260.59
2023-09-24T10:14:41.152Z,102265.47
2023-09-24T10:17:16.781Z,102265.59
2023-09-24T10:19:53.069Z,102257.66
2023-09-24T10:22:41.732Z,102263.81
2023-09-24T10:25:35.856Z,102256.69
2023-09-24T10:28:09.608Z,102256.00
2023-09-24T10:31:05.719Z,102249.00
2023-09-24T10:33:59.045Z,102250.72
2023-09-24T10:36:32.765Z,102241.69
2023-09-24T10:39:11.882Z,102250.03
2023-09-24T10:42:11.452Z,102249.28
2023-09-24T10:44:38.970Z,102249.38
2023-09-24T10:47:32.061Z,102245.69
2023-09-24T10:50:12.159Z,102243.69
2023-09-24T10:52:55.093Z,102237.72
2023-09-24T10:55:31.068Z,102239.41
2023-09-24T10:58:01.218Z,102232.16
2023-09-24T11:00:29.998Z,102240.50
2023-09-24T11:02:59.597Z,102239.59
2023-09-24T11:05:28.348Z,102237.94
2023-09-24T11:07:55.796Z,102236.97
2023-09-24T11:10:26.626Z,102241.69
2023-09-24T11:12:57.454Z,102233.22
2023-09-24T11:15:26.085Z,102237.75
2023-09-24T11:17:53.488Z,102234.56
2023-09-24T11:20:25.988Z,102239.44
2023-09-24T11:23:12.456Z,102239.88
2023-09-24T11:25:40.872Z,102240.50
2023-09-24T11:28:08.243Z,102242.78
2023-09-24T11:30:50.354Z,102241.94
2023-09-24T11:33:35.944Z,102242.03
2023-09-24T11:36:02.821Z,102234.38
2023-09-24T11:38:41.695Z,102226.75
2023-09-24T11:41:10.401Z,102229.19
2023-09-24T11:43:38.385Z,102232.94
2023-09-24T11:46:19.535Z,102234.31
2023-09-24T11:48:47.406Z,102229.94
2023-09-24T11:51:15.141Z,102226.56
2023-09-24T11:53:42.057Z,102218.75
2023-09-24T11:56:08.940Z,102216.91
2023-09-24T11:58:35.585Z,102217.72
2023-09-24T12:01:05.436Z,102221.88
2023-09-24T12:03:32.472Z,102220.13
2023-09-24T12:05:59.376Z,102216.91
2023-09-24T12:08:26.012Z,102221.00
2023-09-24T12:10:53.282Z,102221.81
2023-09-24T12:13:20.149Z,102217.19
2023-09-24T12:15:47.208Z,102213.34
2023-09-24T12:18:14.436Z,102213.41
2023-09-24T12:20:43.653Z,102221.97
2023-09-24T12:23:11.692Z,102212.69
2023-09-24T12:25:45.502Z,102205.59
2023-09-24T12:28:15.627Z,102199.94
2023-09-24T12:30:44.372Z,102203.03
2023-09-24T12:33:14.370Z,102205.66
2023-09-24T12:35:43.813Z,102203.03
2023-09-24T12:38:11.059Z,102201.13
2023-09-24T12:40:37.871Z,102193.16
2023-09-24T12:43:05.928Z,102197.78
2023-09-24T12:45:35.541Z,102198.78
2023-09-24T12:48:02.955Z,102190.75
2023-09-24T12:50:29.910Z,102192.41
2023-09-24T12:52:56.931Z,102189.03
2023-09-24T12:55:23.561Z,102199.00
2023-09-24T12:57:50.370Z,102195.53
2023-09-24T13:00:17.976Z,102189.03
2023-09-24T13:02:48.387Z,102192.47
2023-09-24T13:05:19.276Z,102195.13
2023-09-24T13:07:47.716Z,102183.53
2023-09-24T13:10:17.977Z,102184.97
2023-09-24T13:12:45.464Z,102182.69
2023-09-24T13:15:13.124Z,102183.47
2023-09-24T13:17:41.196Z,102181.84
2023-09-24T13:20:14.948Z,102176.72
2023-09-24T13:22:41.641Z,102191.25
2023-09-24T13:25:10.036Z,102188.25
2023-09-24T13:27:37.853Z,102179.53
2023-09-24T13:30:06.655Z,102181.59
2023-09-24T13:32:35.178Z,102176.19
2023-09-24T13:35:05.006Z,102176.00
2023-09-24T13:37:31.910Z,102168.91
2023-09-24T13:39:58.629Z,102164.69
2023-09-24T13:42:25.680Z,102166.94
2023-09-24T13:44:52.530Z,102157.84
2023-09-24T13:47:20.496Z,102159.25
2023-09-24T13:49:47.652Z,102173.88
2023-09-24T13:52:14.346Z,102163.50
2023-09-24T13:54:41.068Z,102161.44
2023-09-24T13:57:09.325Z,102157.19
2023-09-24T13:59:36.023Z,102166.28
2023-09-24T14:02:05.274Z,102169.91
2023-09-24T14:04:32.371Z,102152.03
2023-09-24T14:06:59.214Z,102145.38
2023-09-24T14:09:44.188Z,102145.75
2023-09-24T14:12:19.071Z,102139.66
2023-09-24T14:14:45.944Z,102149.56
2023-09-24T14:17:12.621Z,102137.41
2023-09-24T14:19:39.616Z,102148.13
2023-09-24T14:22:06.205Z,102143.66
2023-09-24T14:24:33.677Z,102139.75
2023-09-24T14:27:02.146Z,102140.78
2023-09-24T14:29:28.848Z,102142.78
2023-09-24T14:31:55.571Z,102139.53
2023-09-24T14:34:22.242Z,102132.00
2023-09-24T14:36:48.867Z,102137.91
2023-09-24T14:39:15.934Z,102136.91
2023-09-24T14:41:42.714Z,102126.16
2023-09-24T14:44:12.101Z,102136.50
2023-09-24T14:46:43.393Z,102129.00
2023-09-24T14:49:10.314Z,102123.28
2023-09-24T14:51:37.418Z,102122.06
2023-09-24T14:54:04.411Z,102126.69
2023-09-24T14:56:31.230Z,102120.00
2023-09-24T14:58:57.928Z,102114.91
2023-09-24T15:01:24.679Z,102122.16
2023-09-24T15:03:51.591Z,102115.44
2023-09-24T15:06:18.605Z,102121.72
2023-09-24T15:08:45.682Z,102114.03
2023-09-24T15:11:12.455Z,102116.03
2023-09-24T15:13:41.590Z,102114.41
2023-09-24T15:16:08.434Z,102109.72
2023-09-24T15:18:35.916Z,102110.72
2023-09-24T15:21:04.817Z,102104.00
2023-09-24T15:23:31.794Z,102101.56
2023-09-24T15:25:58.633Z,102106.41
2023-09-24T15:28:25.837Z,102106.16
2023-09-24T15:30:52.453Z,102103.09
2023-09-24T15:33:19.494Z,102111.16
2023-09-24T15:35:47.871Z,102107.31
2023-09-24T15:38:14.759Z,102102.41
2023-09-24T15:40:41.797Z,102096.53
2023-09-24T15:43:10.312Z,102099.53
2023-09-24T15:45:39.126Z,102087.97
2023-09-24T15:48:06.908Z,102093.78
2023-09-24T15:50:34.004Z,102088.88
2023-09-24T15:53:01.067Z,102091.25
2023-09-24T15:55:29.276Z,102091.00
2023-09-24T15:57:55.985Z,102100.69
2023-09-24T16:00:24.203Z,102094.19
2023-09-24T16:02:51.228Z,102094.59
2023-09-24T16:05:18.475Z,102098.41
2023-09-24T16:07:45.360Z,102093.50
2023-09-24T16:10:12.136Z,102088.81
2023-09-24T16:12:38.836Z,102081.66
2023-09-24T16:15:06.276Z,102081.00
2023-09-24T16:17:33.418Z,102077.94
2023-09-24T16:20:00.146Z,102078.13
2023-09-24T16:22:26.950Z,102075.88
2023-09-24T16:24:54.701Z,102082.50
2023-09-24T16:27:23.320Z,102076.34
2023-09-24T16:29:52.081Z,102081.34
2023-09-24T16:32:19.710Z,102079.44
2023-09-24T16:34:49.476Z,102074.56
2023-09-24T16:37:16.535Z,102076.72
2023-09-24T16:39:43.235Z,102078.28
2023-09-24T16:42:10.036Z,102085.06
2023-09-24T16:44:36.921Z,102086.44
2023-09-24T16:47:06.622Z,102077.47
2023-09-24T16:49:34.257Z,102081.00
2023-09-24T16:52:01.123Z,102074.66
2023-09-24T16:54:28.453Z,102071.59
2023-09-24T16:56:56.319Z,102074.13
2023-09-24T16:59:23.299Z,102079.13
2023-09-24T17:01:52.428Z,102086.66
2023-09-24T17:04:20.069Z,102075.91
2023-09-24T17:06:48.237Z,102074.00
2023-09-24T17:09:14.899Z,102078.97
2023-09-24T17:11:43.139Z,102080.47
2023-09-24T17:14:11.511Z,102087.25
2023-09-24T17:16:38.156Z,102090.56
2023-09-24T17:19:04.968Z,102094.91
2023-09-24T17:21:31.955Z,102088.56
2023-09-24T17:23:59.281Z,102085.84
2023-09-24T17:26:26.909Z,102093.56
2023-09-24T17:28:54.354Z,102097.72
2023-09-24T17:31:21.791Z,102098.59
2023-09-24T17:33:49.095Z,102091.44
2023-09-24T17:36:19.574Z,102093.94
2023-09-24T17:38:50.400Z,102091.34
2023-09-24T17:41:17.559Z,102099.41
2023-09-24T17:43:44.473Z,102096.84
2023-09-24T17:46:17.332Z,102098.50
2023-09-24T17:48:47.580Z,102101.00
2023-09-24T17:51:16.646Z,102101.66
2023-09-24T17:53:43.576Z,102103.69
2023-09-24T17:56:11.664Z,102098.47
2023-09-24T17:58:38.497Z,102104.53
2023-09-24T18:01:13.698Z,102102.16
2023-09-24T18:03:43.538Z,102105.75
2023-09-24T18:06:11.915Z,102114.91
2023-09-24T18:08:39.515Z,102108.41
2023-09-24T18:11:06.787Z,102120.19
2023-09-24T18:13:34.060Z,102116.75
2023-09-24T18:16:02.664Z,102121.19
2023-09-24T18:18:32.554Z,102116.72
2023-09-24T18:21:01.122Z,102110.38
2023-09-24T18:23:30.315Z,102106.78
2023-09-24T18:25:58.014Z,102112.50
2023-09-24T18:28:24.660Z,102117.22
2023-09-24T18:30:51.843Z,102109.72
2023-09-24T18:33:18.815Z,102113.81
2023-09-24T18:35:46.022Z,102121.31
2023-09-24T18:38:13.225Z,102107.75
2023-09-24T18:40:42.018Z,102110.03
2023-09-24T18:43:09.424Z,102118.38
2023-09-24T18:45:38.299Z,102119.50
2023-09-24T18:48:06.235Z,102122.28
2023-09-24T18:50:35.051Z,102118.38
2023-09-24T18:53:01.893Z,102111.81
2023-09-24T18:55:28.601Z,102118.34
2023-09-24T18:57:55.246Z,102116.22
2023-09-24T19:00:22.044Z,102114.56
2023-09-24T19:02:51.702Z,102114.09
2023-09-24T19:05:18.894Z,102118.00
2023-09-24T19:07:45.596Z,102115.53
2023-09-24T19:10:16.496Z,102111.28
2023-09-24T19:12:45.065Z,102110.31
2023-09-24T19:15:13.918Z,102110.31
2023-09-24T19:17:41.681Z,102114.88
2023-09-24T19:20:08.895Z,102112.75
2023-09-24T19:22:36.146Z,102109.66
2023-09-24T19:25:03.018Z,102116.13
2023-09-24T19:27:29.935Z,102111.91
2023-09-24T19:30:00.506Z,102098.34
2023-09-24T19:32:28.820Z,102099.63
2023-09-24T19:34:55.941Z,102099.97
2023-09-24T19:37:23.731Z,102096.69
2023-09-24T19:39:50.943Z,102096.84
2023-09-24T19:42:17.727Z,102091.75
2023-09-24T19:44:47.500Z,102090.13
2023-09-24T19:47:17.185Z,102080.81
2023-09-24T19:49:44.567Z,102080.97
2023-09-24T19:52:11.292Z,102072.31
2023-09-24T19:54:38.230Z,102076.22
2023-09-24T19:57:05.131Z,102079.00
2023-09-24T19:59:32.827Z,102078.19
2023-09-24T20:01:59.675Z,102078.47
2023-09-24T20:04:26.426Z,102070.97
2023-09-24T20:06:53.170Z,102067.69
2023-09-24T20:09:20.100Z,102067.03
2023-09-24T20:11:46.824Z,102061.00
2023-09-24T20:14:15.200Z,102060.19
2023-09-24T20:16:42.403Z,102061.00
2023-09-24T20:19:10.440Z,102054.16
2023-09-24T20:21:37.942Z,102049.06
2023-09-24T20:24:10.351Z,102044.84
2023-09-24T20:26:43.340Z,102050.38
2023-09-24T20:29:10.458Z,102052.97
2023-09-24T20:31:38.028Z,102051.03
2023-09-24T20:34:05.450Z,102044.84
2023-09-24T20:36:33.948Z,102045.69
2023-09-24T20:39:07.857Z,102046.47
2023-09-24T20:41:36.311Z,102047.28
2023-09-24T20:44:04.136Z,102044.03
2023-09-24T20:46:41.270Z,102048.28
2023-09-24T20:49:10.277Z,102054.16
2023-09-24T20:51:37.655Z,102047.81
2023-09-24T20:54:05.042Z,102046.81
2023-09-24T20:56:32.174Z,102044.06
2023-09-24T20:59:05.824Z,102041.28
2023-09-24T21:01:32.563Z,102038.38
2023-09-24T21:04:00.345Z,102030.19
2023-09-24T21:06:27.020Z,102031.03
2023-09-24T21:08:53.629Z,102030.19
2023-09-24T21:11:20.625Z,102026.13
2023-09-24T21:13:47.281Z,102031.50
2023-09-24T21:16:14.039Z,102023.03
2023-09-24T21:18:40.830Z,102018.75
2023-09-24T21:21:07.531Z,102018.09
2023-09-24T21:23:34.276Z,102019.09
2023-09-24T21:26:02.672Z,102010.28
2023-09-24T21:28:29.529Z,102013.72
2023-09-24T21:31:04.484Z,102013.88
2023-09-24T21:33:31.668Z,102011.41
2023-09-24T21:35:59.480Z,102005.41
2023-09-24T21:38:26.448Z,102008.97
2023-09-24T21:40:53.563Z,102007.31
2023-09-24T21:43:20.409Z,102007.50
2023-09-24T21:45:46.995Z,102000.66
2023-09-24T21:48:13.892Z,101998.19
2023-09-24T21:50:40.834Z,101996.56
2023-09-24T21:53:07.646Z,101992.97
2023-09-24T21:55:34.241Z,101988.41
2023-09-24T21:58:01.203Z,101986.91
2023-09-24T22:00:27.819Z,101983.47
2023-09-24T22:02:55.881Z,101986.91
2023-09-24T22:05:22.960Z,101991.47
2023-09-24T22:07:51.459Z,101989.34
2023-09-24T22:10:18.407Z,101991.44
2023-09-24T22:12:46.002Z,101988.47
2023-09-24T22:15:13.052Z,101991.41
2023-09-24T22:17:40.479Z,101993.50
2023-09-24T22:20:07.858Z,101976.38
2023-09-24T22:22:34.896Z,101974.75
2023-09-24T22:25:01.689Z,101976.06
2023-09-24T22:27:28.713Z,101977.97
2023-09-24T22:29:55.587Z,101977.50
2023-09-24T22:32:22.433Z,101974.72
2023-09-24T22:34:49.254Z,101975.03
2023-09-24T22:37:15.912Z,101971.91
2023-09-24T22:39:42.884Z,101962.78
2023-09-24T22:42:09.719Z,101974.50
2023-09-24T22:44:36.672Z,101976.47
2023-09-24T22:47:03.501Z,101968.94
2023-09-24T22:49:31.063Z,101971.00
2023-09-24T22:51:57.628Z,101972.13
2023-09-24T22:54:25.666Z,101970.69
2023-09-24T22:56:52.278Z,101970.00
2023-09-24T22:59:18.910Z,101967.72
2023-09-24T23:01:45.622Z,101968.19
2023-09-24T23:04:12.564Z,101971.75
2023-09-24T23:06:40.481Z,101971.91
2023-09-24T23:09:07.752Z,101977.25
2023-09-24T23:11:36.837Z,101965.38
2023-09-24T23:14:04.609Z,101968.94
2023-09-24T23:16:31.435Z,101966.50
2023-09-24T23:18:58.644Z,101964.03
2023-09-24T23:21:25.457Z,101970.22
2023-09-24T23:23:53.663Z,101966.81
2023-09-24T23:26:20.224Z,101974.13
2023-09-24T23:28:48.830Z,101966.56
2023-09-24T23:31:16.693Z,101973.84
2023-09-24T23:33:47.214Z,101968.97
2023-09-24T23:36:14.084Z,101968.44
2023-09-24T23:38:40.846Z,101966.16
2023-09-24T23:41:07.535Z,101963.03
2023-09-24T23:43:34.265Z,101968.53
2023-09-24T23:46:02.072Z,101966.09
2023-09-24T23:48:28.769Z,101965.28
2023-09-24T23:50:55.479Z,101962.00
2023-09-24T23:53:22.071Z,101956.13
2023-09-24T23:55:52.274Z,101960.84
2023-09-24T23:58:19.701Z,101947.94
